Terminal Aerodrome Forecast
Issued by NWS Wichita, KS

Home | Current Version | Previous Version | Text Only | Print | Product List | Glossary On
Versions: 1 2 3 4 5 6 7 8 9 10 11 12 13 14 15 16 17 18 19 20
000
FTUS43 KICT 212300
TAFICT
TAF
KICT 212322Z 2200/2224 18010KT P6SM SKC
     FM221500 18015G22KT P6SM BKN100=

USA.gov is the U.S. government's official web portal to all federal, state and local government web resources and services.